Clinton, Washington
Current Conditions -  °F | °C
As of 7:53 PM on Friday 19 Dec 2014 (Local Time) from KPAE Reporting Station
Overcast Overcast  
Wind Chill: 43°   Ceiling: 5500
Heat Index: 47°   Visibility: 10mi
Dew Point: 38°   Wind: 9mph
Humidity: 71%   Direction: 150°SSE
Pressure: 29.92"   Gusts: NA
Location:  47.98°N, 122.36°W
Report Text: KPAE 200353Z 15008KT 10SM SCT045 OVC055 08/03 A2992 RMK AO2 RAB32E46 SLP136 P0000 T00830033
Loading
Personal Weather Stations






























Interactive Weather Map New forecast layout! Learn more

10-Day Weather Forecast

Advertisements
Track Severe Weather on mobile